sensor_id;sensor_type;location;lat;lon;timestamp;P1;durP1;ratioP1;P2;durP2;ratioP2
28192;SDS011;15473;50.840;3.396;2023-01-10T00:00:16;9.53;;;2.08;;
28192;SDS011;15473;50.840;3.396;2023-01-10T00:03:10;7.00;;;1.80;;
28192;SDS011;15473;50.840;3.396;2023-01-10T00:06:02;6.03;;;2.08;;
28192;SDS011;15473;50.840;3.396;2023-01-10T00:08:55;12.75;;;2.77;;
28192;SDS011;15473;50.840;3.396;2023-01-10T00:11:48;5.75;;;1.90;;
28192;SDS011;15473;50.840;3.396;2023-01-10T00:14:59;8.23;;;2.22;;
28192;SDS011;15473;50.840;3.396;2023-01-10T00:17:52;7.47;;;1.70;;
28192;SDS011;15473;50.840;3.396;2023-01-10T00:20:46;10.30;;;2.10;;
28192;SDS011;15473;50.840;3.396;2023-01-10T00:23:45;14.38;;;2.67;;
28192;SDS011;15473;50.840;3.396;2023-01-10T00:26:29;14.13;;;2.67;;
28192;SDS011;15473;50.840;3.396;2023-01-10T00:29:26;8.55;;;1.98;;
28192;SDS011;15473;50.840;3.396;2023-01-10T00:32:42;7.67;;;2.27;;
28192;SDS011;15473;50.840;3.396;2023-01-10T00:35:42;4.87;;;1.62;;
28192;SDS011;15473;50.840;3.396;2023-01-10T00:38:41;6.20;;;1.72;;
28192;SDS011;15473;50.840;3.396;2023-01-10T00:41:35;9.18;;;1.65;;
28192;SDS011;15473;50.840;3.396;2023-01-10T00:44:46;11.15;;;1.70;;
28192;SDS011;15473;50.840;3.396;2023-01-10T00:47:39;12.25;;;2.12;;
28192;SDS011;15473;50.840;3.396;2023-01-10T00:50:32;7.65;;;2.35;;
28192;SDS011;15473;50.840;3.396;2023-01-10T00:53:25;9.05;;;1.95;;
28192;SDS011;15473;50.840;3.396;2023-01-10T00:56:18;7.40;;;2.02;;
28192;SDS011;15473;50.840;3.396;2023-01-10T00:59:11;6.65;;;2.85;;
28192;SDS011;15473;50.840;3.396;2023-01-10T01:02:04;7.17;;;2.05;;
28192;SDS011;15473;50.840;3.396;2023-01-10T01:04:56;10.70;;;1.90;;
28192;SDS011;15473;50.840;3.396;2023-01-10T01:07:50;11.28;;;1.87;;
28192;SDS011;15473;50.840;3.396;2023-01-10T01:10:44;6.25;;;2.15;;
28192;SDS011;15473;50.840;3.396;2023-01-10T01:13:37;10.00;;;2.20;;
28192;SDS011;15473;50.840;3.396;2023-01-10T01:16:30;8.10;;;1.55;;
28192;SDS011;15473;50.840;3.396;2023-01-10T01:19:23;9.10;;;2.20;;
28192;SDS011;15473;50.840;3.396;2023-01-10T01:22:17;7.37;;;1.87;;
28192;SDS011;15473;50.840;3.396;2023-01-10T01:25:11;12.60;;;2.00;;
28192;SDS011;15473;50.840;3.396;2023-01-10T01:28:04;6.08;;;1.92;;
28192;SDS011;15473;50.840;3.396;2023-01-10T01:30:57;5.87;;;3.00;;
28192;SDS011;15473;50.840;3.396;2023-01-10T01:33:50;3.87;;;2.05;;
28192;SDS011;15473;50.840;3.396;2023-01-10T01:36:50;7.47;;;1.32;;
28192;SDS011;15473;50.840;3.396;2023-01-10T01:39:49;6.03;;;1.65;;
28192;SDS011;15473;50.840;3.396;2023-01-10T01:42:42;8.53;;;1.92;;
28192;SDS011;15473;50.840;3.396;2023-01-10T01:45:36;6.08;;;2.02;;
28192;SDS011;15473;50.840;3.396;2023-01-10T01:48:32;8.30;;;2.27;;
28192;SDS011;15473;50.840;3.396;2023-01-10T01:51:26;14.35;;;2.45;;
28192;SDS011;15473;50.840;3.396;2023-01-10T01:54:22;10.25;;;2.50;;
28192;SDS011;15473;50.840;3.396;2023-01-10T01:57:16;8.60;;;2.12;;
28192;SDS011;15473;50.840;3.396;2023-01-10T02:00:10;9.68;;;2.15;;
28192;SDS011;15473;50.840;3.396;2023-01-10T02:03:04;8.78;;;1.57;;
28192;SDS011;15473;50.840;3.396;2023-01-10T02:05:57;7.28;;;1.70;;
28192;SDS011;15473;50.840;3.396;2023-01-10T02:08:55;8.08;;;2.00;;
28192;SDS011;15473;50.840;3.396;2023-01-10T02:11:46;8.65;;;1.80;;
28192;SDS011;15473;50.840;3.396;2023-01-10T02:14:39;14.98;;;2.20;;
28192;SDS011;15473;50.840;3.396;2023-01-10T02:17:35;2.90;;;1.47;;
28192;SDS011;15473;50.840;3.396;2023-01-10T02:20:30;11.83;;;2.02;;
28192;SDS011;15473;50.840;3.396;2023-01-10T02:33:13;6.78;;;2.15;;
28192;SDS011;15473;50.840;3.396;2023-01-10T02:39:39;10.63;;;2.45;;
28192;SDS011;15473;50.840;3.396;2023-01-10T02:42:35;8.65;;;2.05;;
28192;SDS011;15473;50.840;3.396;2023-01-10T02:45:37;11.57;;;2.15;;
28192;SDS011;15473;50.840;3.396;2023-01-10T02:48:27;14.53;;;2.22;;
28192;SDS011;15473;50.840;3.396;2023-01-10T02:51:21;6.55;;;1.30;;
28192;SDS011;15473;50.840;3.396;2023-01-10T02:54:22;5.33;;;1.57;;
28192;SDS011;15473;50.840;3.396;2023-01-10T03:00:37;4.95;;;1.77;;
28192;SDS011;15473;50.840;3.396;2023-01-10T03:07:16;11.78;;;2.02;;
28192;SDS011;15473;50.840;3.396;2023-01-10T03:09:40;7.35;;;2.12;;
28192;SDS011;15473;50.840;3.396;2023-01-10T03:12:55;7.45;;;2.00;;
28192;SDS011;15473;50.840;3.396;2023-01-10T03:15:56;3.08;;;1.42;;
28192;SDS011;15473;50.840;3.396;2023-01-10T03:18:53;5.10;;;1.35;;
28192;SDS011;15473;50.840;3.396;2023-01-10T03:21:46;8.53;;;1.65;;
28192;SDS011;15473;50.840;3.396;2023-01-10T03:24:52;5.72;;;2.17;;
28192;SDS011;15473;50.840;3.396;2023-01-10T03:27:57;7.70;;;1.75;;
28192;SDS011;15473;50.840;3.396;2023-01-10T03:30:55;7.47;;;2.00;;
28192;SDS011;15473;50.840;3.396;2023-01-10T03:33:52;7.75;;;1.85;;
28192;SDS011;15473;50.840;3.396;2023-01-10T03:36:49;12.00;;;2.22;;
28192;SDS011;15473;50.840;3.396;2023-01-10T03:43:36;10.72;;;1.60;;
28192;SDS011;15473;50.840;3.396;2023-01-10T03:50:20;7.12;;;2.47;;
28192;SDS011;15473;50.840;3.396;2023-01-10T03:53:15;6.85;;;1.57;;
28192;SDS011;15473;50.840;3.396;2023-01-10T03:59:35;6.55;;;1.57;;
28192;SDS011;15473;50.840;3.396;2023-01-10T04:02:20;9.45;;;2.35;;
28192;SDS011;15473;50.840;3.396;2023-01-10T04:05:13;13.48;;;2.02;;
28192;SDS011;15473;50.840;3.396;2023-01-10T04:08:07;8.95;;;1.85;;
28192;SDS011;15473;50.840;3.396;2023-01-10T04:11:00;9.48;;;1.67;;
28192;SDS011;15473;50.840;3.396;2023-01-10T04:13:54;3.58;;;1.45;;
28192;SDS011;15473;50.840;3.396;2023-01-10T04:16:48;8.50;;;1.85;;
28192;SDS011;15473;50.840;3.396;2023-01-10T04:19:41;5.05;;;1.65;;
28192;SDS011;15473;50.840;3.396;2023-01-10T04:22:35;6.53;;;2.10;;
28192;SDS011;15473;50.840;3.396;2023-01-10T04:25:28;7.92;;;1.62;;
28192;SDS011;15473;50.840;3.396;2023-01-10T04:28:20;10.23;;;1.65;;
28192;SDS011;15473;50.840;3.396;2023-01-10T04:31:14;5.90;;;1.50;;
28192;SDS011;15473;50.840;3.396;2023-01-10T04:34:07;7.50;;;1.80;;
28192;SDS011;15473;50.840;3.396;2023-01-10T04:37:00;8.18;;;2.12;;
28192;SDS011;15473;50.840;3.396;2023-01-10T04:39:53;13.22;;;3.20;;
28192;SDS011;15473;50.840;3.396;2023-01-10T04:42:52;9.10;;;2.08;;
28192;SDS011;15473;50.840;3.396;2023-01-10T04:45:46;14.07;;;2.55;;
28192;SDS011;15473;50.840;3.396;2023-01-10T04:48:39;3.22;;;1.75;;
28192;SDS011;15473;50.840;3.396;2023-01-10T04:51:32;11.78;;;2.00;;
28192;SDS011;15473;50.840;3.396;2023-01-10T04:54:25;3.95;;;1.82;;
28192;SDS011;15473;50.840;3.396;2023-01-10T04:57:19;4.05;;;1.67;;
28192;SDS011;15473;50.840;3.396;2023-01-10T05:00:12;13.13;;;1.95;;
28192;SDS011;15473;50.840;3.396;2023-01-10T05:03:04;8.13;;;1.92;;
28192;SDS011;15473;50.840;3.396;2023-01-10T05:06:07;13.88;;;2.05;;
28192;SDS011;15473;50.840;3.396;2023-01-10T05:08:59;11.53;;;1.98;;
28192;SDS011;15473;50.840;3.396;2023-01-10T05:11:52;9.75;;;2.12;;
28192;SDS011;15473;50.840;3.396;2023-01-10T05:14:45;8.98;;;2.00;;
28192;SDS011;15473;50.840;3.396;2023-01-10T05:17:38;12.05;;;2.05;;
28192;SDS011;15473;50.840;3.396;2023-01-10T05:20:31;11.35;;;1.95;;
28192;SDS011;15473;50.840;3.396;2023-01-10T05:23:25;6.80;;;1.95;;
28192;SDS011;15473;50.840;3.396;2023-01-10T05:26:19;6.45;;;1.57;;
28192;SDS011;15473;50.840;3.396;2023-01-10T05:29:14;8.18;;;1.60;;
28192;SDS011;15473;50.840;3.396;2023-01-10T05:32:06;9.33;;;1.80;;
28192;SDS011;15473;50.840;3.396;2023-01-10T05:34:59;7.42;;;2.00;;
28192;SDS011;15473;50.840;3.396;2023-01-10T05:37:52;9.25;;;2.02;;
28192;SDS011;15473;50.840;3.396;2023-01-10T05:40:45;8.03;;;2.67;;
28192;SDS011;15473;50.840;3.396;2023-01-10T05:43:44;6.30;;;2.25;;
28192;SDS011;15473;50.840;3.396;2023-01-10T05:46:36;8.53;;;2.10;;
28192;SDS011;15473;50.840;3.396;2023-01-10T05:49:29;7.22;;;1.57;;
28192;SDS011;15473;50.840;3.396;2023-01-10T05:52:23;13.13;;;1.42;;
28192;SDS011;15473;50.840;3.396;2023-01-10T05:55:15;11.03;;;1.95;;
28192;SDS011;15473;50.840;3.396;2023-01-10T05:58:09;5.17;;;1.37;;
28192;SDS011;15473;50.840;3.396;2023-01-10T06:01:02;10.15;;;2.10;;
28192;SDS011;15473;50.840;3.396;2023-01-10T06:03:55;14.45;;;2.10;;
28192;SDS011;15473;50.840;3.396;2023-01-10T06:06:54;11.12;;;1.82;;
28192;SDS011;15473;50.840;3.396;2023-01-10T06:09:38;10.85;;;1.75;;
28192;SDS011;15473;50.840;3.396;2023-01-10T06:12:30;4.67;;;1.65;;
28192;SDS011;15473;50.840;3.396;2023-01-10T06:15:23;6.35;;;1.70;;
28192;SDS011;15473;50.840;3.396;2023-01-10T06:18:16;5.00;;;1.57;;
28192;SDS011;15473;50.840;3.396;2023-01-10T06:21:09;9.80;;;2.30;;
28192;SDS011;15473;50.840;3.396;2023-01-10T06:24:03;11.55;;;2.45;;
28192;SDS011;15473;50.840;3.396;2023-01-10T06:27:02;13.30;;;2.25;;
28192;SDS011;15473;50.840;3.396;2023-01-10T06:29:55;11.15;;;1.77;;
28192;SDS011;15473;50.840;3.396;2023-01-10T06:32:51;10.93;;;2.10;;
28192;SDS011;15473;50.840;3.396;2023-01-10T06:35:44;6.40;;;2.22;;
28192;SDS011;15473;50.840;3.396;2023-01-10T06:38:38;7.62;;;1.87;;
28192;SDS011;15473;50.840;3.396;2023-01-10T06:41:31;4.15;;;1.62;;
28192;SDS011;15473;50.840;3.396;2023-01-10T06:44:30;11.70;;;2.35;;
28192;SDS011;15473;50.840;3.396;2023-01-10T06:47:24;8.38;;;1.85;;
28192;SDS011;15473;50.840;3.396;2023-01-10T06:50:17;5.20;;;1.72;;
28192;SDS011;15473;50.840;3.396;2023-01-10T06:53:11;5.58;;;1.45;;
28192;SDS011;15473;50.840;3.396;2023-01-10T06:56:04;10.80;;;3.10;;
28192;SDS011;15473;50.840;3.396;2023-01-10T06:58:57;8.45;;;2.02;;
28192;SDS011;15473;50.840;3.396;2023-01-10T07:01:51;9.75;;;2.17;;
28192;SDS011;15473;50.840;3.396;2023-01-10T07:04:44;6.78;;;1.77;;
28192;SDS011;15473;50.840;3.396;2023-01-10T07:07:39;8.20;;;2.17;;
28192;SDS011;15473;50.840;3.396;2023-01-10T07:10:32;9.55;;;2.02;;
28192;SDS011;15473;50.840;3.396;2023-01-10T07:13:32;4.67;;;1.80;;
28192;SDS011;15473;50.840;3.396;2023-01-10T07:16:25;9.45;;;2.20;;
28192;SDS011;15473;50.840;3.396;2023-01-10T07:19:18;12.07;;;1.87;;
28192;SDS011;15473;50.840;3.396;2023-01-10T07:22:11;7.28;;;2.00;;
28192;SDS011;15473;50.840;3.396;2023-01-10T07:25:04;13.03;;;1.95;;
28192;SDS011;15473;50.840;3.396;2023-01-10T07:27:57;11.30;;;1.80;;
28192;SDS011;15473;50.840;3.396;2023-01-10T07:30:50;9.10;;;1.70;;
28192;SDS011;15473;50.840;3.396;2023-01-10T07:33:43;5.15;;;1.82;;
28192;SDS011;15473;50.840;3.396;2023-01-10T07:36:36;9.43;;;1.87;;
28192;SDS011;15473;50.840;3.396;2023-01-10T07:39:29;5.97;;;1.42;;
28192;SDS011;15473;50.840;3.396;2023-01-10T07:42:23;7.28;;;1.50;;
28192;SDS011;15473;50.840;3.396;2023-01-10T07:45:22;12.78;;;2.20;;
28192;SDS011;15473;50.840;3.396;2023-01-10T07:48:17;7.50;;;1.90;;
28192;SDS011;15473;50.840;3.396;2023-01-10T07:51:09;19.45;;;2.52;;
28192;SDS011;15473;50.840;3.396;2023-01-10T07:54:02;6.62;;;2.30;;
28192;SDS011;15473;50.840;3.396;2023-01-10T07:56:54;6.28;;;1.85;;
28192;SDS011;15473;50.840;3.396;2023-01-10T07:59:47;7.25;;;2.17;;
28192;SDS011;15473;50.840;3.396;2023-01-10T08:02:39;11.18;;;2.37;;
28192;SDS011;15473;50.840;3.396;2023-01-10T08:05:32;4.37;;;2.10;;
28192;SDS011;15473;50.840;3.396;2023-01-10T08:08:25;5.25;;;1.98;;
28192;SDS011;15473;50.840;3.396;2023-01-10T08:11:18;6.20;;;1.95;;
28192;SDS011;15473;50.840;3.396;2023-01-10T08:14:17;7.22;;;1.95;;
28192;SDS011;15473;50.840;3.396;2023-01-10T08:17:11;8.50;;;2.02;;
28192;SDS011;15473;50.840;3.396;2023-01-10T08:20:04;7.83;;;2.22;;
28192;SDS011;15473;50.840;3.396;2023-01-10T08:22:58;15.58;;;3.00;;
28192;SDS011;15473;50.840;3.396;2023-01-10T08:25:51;8.98;;;2.42;;
28192;SDS011;15473;50.840;3.396;2023-01-10T08:28:45;13.65;;;2.45;;
28192;SDS011;15473;50.840;3.396;2023-01-10T08:31:41;10.08;;;2.90;;
28192;SDS011;15473;50.840;3.396;2023-01-10T08:34:34;7.58;;;2.37;;
28192;SDS011;15473;50.840;3.396;2023-01-10T08:37:27;8.18;;;2.15;;
28192;SDS011;15473;50.840;3.396;2023-01-10T08:40:20;6.85;;;2.10;;
28192;SDS011;15473;50.840;3.396;2023-01-10T08:43:13;5.10;;;2.15;;
28192;SDS011;15473;50.840;3.396;2023-01-10T08:46:12;9.88;;;3.00;;
28192;SDS011;15473;50.840;3.396;2023-01-10T08:49:05;18.95;;;2.60;;
28192;SDS011;15473;50.840;3.396;2023-01-10T08:51:59;9.20;;;2.87;;
28192;SDS011;15473;50.840;3.396;2023-01-10T08:54:55;19.70;;;2.62;;
28192;SDS011;15473;50.840;3.396;2023-01-10T08:57:49;8.73;;;2.37;;
28192;SDS011;15473;50.840;3.396;2023-01-10T09:00:42;18.52;;;4.08;;
28192;SDS011;15473;50.840;3.396;2023-01-10T09:03:35;15.08;;;2.72;;
28192;SDS011;15473;50.840;3.396;2023-01-10T09:06:29;7.72;;;3.30;;
28192;SDS011;15473;50.840;3.396;2023-01-10T09:09:23;9.40;;;2.40;;
28192;SDS011;15473;50.840;3.396;2023-01-10T09:12:16;14.45;;;2.92;;
28192;SDS011;15473;50.840;3.396;2023-01-10T09:15:34;11.75;;;2.58;;
28192;SDS011;15473;50.840;3.396;2023-01-10T09:18:28;12.13;;;2.90;;
28192;SDS011;15473;50.840;3.396;2023-01-10T09:21:22;9.05;;;2.90;;
28192;SDS011;15473;50.840;3.396;2023-01-10T09:24:14;10.88;;;3.22;;
28192;SDS011;15473;50.840;3.396;2023-01-10T09:27:07;9.23;;;2.55;;
28192;SDS011;15473;50.840;3.396;2023-01-10T09:30:02;8.00;;;3.55;;
28192;SDS011;15473;50.840;3.396;2023-01-10T09:32:56;12.15;;;3.02;;
28192;SDS011;15473;50.840;3.396;2023-01-10T09:35:50;11.45;;;3.15;;
28192;SDS011;15473;50.840;3.396;2023-01-10T09:38:43;7.53;;;2.58;;
28192;SDS011;15473;50.840;3.396;2023-01-10T09:41:49;13.45;;;2.87;;
28192;SDS011;15473;50.840;3.396;2023-01-10T09:48:08;12.68;;;2.90;;
28192;SDS011;15473;50.840;3.396;2023-01-10T09:51:30;12.82;;;3.30;;
28192;SDS011;15473;50.840;3.396;2023-01-10T09:54:39;11.80;;;3.05;;
28192;SDS011;15473;50.840;3.396;2023-01-10T09:57:28;5.83;;;2.25;;
28192;SDS011;15473;50.840;3.396;2023-01-10T10:00:34;24.60;;;4.15;;
28192;SDS011;15473;50.840;3.396;2023-01-10T10:03:37;11.43;;;2.95;;
28192;SDS011;15473;50.840;3.396;2023-01-10T10:06:31;8.88;;;2.60;;
28192;SDS011;15473;50.840;3.396;2023-01-10T10:09:26;12.00;;;2.60;;
28192;SDS011;15473;50.840;3.396;2023-01-10T10:12:36;16.67;;;3.10;;
28192;SDS011;15473;50.840;3.396;2023-01-10T10:15:41;10.28;;;2.62;;
28192;SDS011;15473;50.840;3.396;2023-01-10T10:22:08;16.35;;;2.62;;
28192;SDS011;15473;50.840;3.396;2023-01-10T10:29:31;15.60;;;3.00;;
28192;SDS011;15473;50.840;3.396;2023-01-10T10:35:24;11.12;;;2.58;;
28192;SDS011;15473;50.840;3.396;2023-01-10T10:38:26;11.40;;;2.58;;
28192;SDS011;15473;50.840;3.396;2023-01-10T10:41:34;15.93;;;2.10;;
28192;SDS011;15473;50.840;3.396;2023-01-10T10:44:58;5.62;;;2.15;;
28192;SDS011;15473;50.840;3.396;2023-01-10T10:48:01;9.15;;;2.58;;
28192;SDS011;15473;50.840;3.396;2023-01-10T10:53:56;14.50;;;2.67;;
28192;SDS011;15473;50.840;3.396;2023-01-10T10:56:51;9.90;;;2.83;;
28192;SDS011;15473;50.840;3.396;2023-01-10T10:59:47;13.58;;;2.62;;
28192;SDS011;15473;50.840;3.396;2023-01-10T11:02:42;6.40;;;2.58;;
28192;SDS011;15473;50.840;3.396;2023-01-10T11:05:39;10.13;;;2.05;;
28192;SDS011;15473;50.840;3.396;2023-01-10T11:08:35;13.20;;;2.22;;
28192;SDS011;15473;50.840;3.396;2023-01-10T11:11:33;8.75;;;2.42;;
28192;SDS011;15473;50.840;3.396;2023-01-10T11:14:41;11.30;;;2.65;;
28192;SDS011;15473;50.840;3.396;2023-01-10T11:18:09;11.95;;;2.35;;
28192;SDS011;15473;50.840;3.396;2023-01-10T11:20:59;10.03;;;2.27;;
28192;SDS011;15473;50.840;3.396;2023-01-10T11:23:54;12.53;;;2.60;;
28192;SDS011;15473;50.840;3.396;2023-01-10T11:26:47;16.15;;;3.95;;
28192;SDS011;15473;50.840;3.396;2023-01-10T11:29:45;13.50;;;3.12;;
28192;SDS011;15473;50.840;3.396;2023-01-10T11:36:00;8.05;;;1.82;;
28192;SDS011;15473;50.840;3.396;2023-01-10T11:39:23;14.73;;;2.20;;
28192;SDS011;15473;50.840;3.396;2023-01-10T11:42:27;10.38;;;2.90;;
28192;SDS011;15473;50.840;3.396;2023-01-10T11:45:23;9.78;;;2.45;;
28192;SDS011;15473;50.840;3.396;2023-01-10T11:48:22;12.80;;;2.02;;
28192;SDS011;15473;50.840;3.396;2023-01-10T11:54:19;13.08;;;2.08;;
28192;SDS011;15473;50.840;3.396;2023-01-10T11:57:15;11.28;;;2.45;;
28192;SDS011;15473;50.840;3.396;2023-01-10T12:00:14;11.73;;;2.37;;
28192;SDS011;15473;50.840;3.396;2023-01-10T12:03:22;14.50;;;2.42;;
28192;SDS011;15473;50.840;3.396;2023-01-10T12:06:25;11.38;;;2.47;;
28192;SDS011;15473;50.840;3.396;2023-01-10T12:09:59;11.05;;;2.87;;
28192;SDS011;15473;50.840;3.396;2023-01-10T12:12:55;8.78;;;2.50;;
28192;SDS011;15473;50.840;3.396;2023-01-10T12:15:50;10.93;;;2.33;;
28192;SDS011;15473;50.840;3.396;2023-01-10T12:18:43;10.48;;;2.65;;
28192;SDS011;15473;50.840;3.396;2023-01-10T12:21:43;10.40;;;2.00;;
28192;SDS011;15473;50.840;3.396;2023-01-10T12:24:35;9.30;;;2.17;;
28192;SDS011;15473;50.840;3.396;2023-01-10T12:27:31;10.18;;;2.65;;
28192;SDS011;15473;50.840;3.396;2023-01-10T12:33:30;6.80;;;2.10;;
28192;SDS011;15473;50.840;3.396;2023-01-10T12:36:52;9.33;;;2.62;;
28192;SDS011;15473;50.840;3.396;2023-01-10T12:39:45;9.93;;;2.45;;
28192;SDS011;15473;50.840;3.396;2023-01-10T12:42:49;9.10;;;2.87;;
28192;SDS011;15473;50.840;3.396;2023-01-10T12:46:26;7.90;;;1.80;;
28192;SDS011;15473;50.840;3.396;2023-01-10T12:49:27;8.65;;;2.15;;
28192;SDS011;15473;50.840;3.396;2023-01-10T12:55:36;4.22;;;1.65;;
28192;SDS011;15473;50.840;3.396;2023-01-10T12:58:42;7.95;;;1.92;;
28192;SDS011;15473;50.840;3.396;2023-01-10T13:01:37;8.68;;;2.12;;
28192;SDS011;15473;50.840;3.396;2023-01-10T13:04:33;9.75;;;2.42;;
28192;SDS011;15473;50.840;3.396;2023-01-10T13:07:28;9.78;;;2.27;;
28192;SDS011;15473;50.840;3.396;2023-01-10T13:10:26;7.92;;;2.60;;
28192;SDS011;15473;50.840;3.396;2023-01-10T13:13:35;8.03;;;2.00;;
28192;SDS011;15473;50.840;3.396;2023-01-10T13:16:35;12.53;;;2.42;;
28192;SDS011;15473;50.840;3.396;2023-01-10T13:19:28;6.57;;;2.00;;
28192;SDS011;15473;50.840;3.396;2023-01-10T13:22:22;6.20;;;2.27;;
28192;SDS011;15473;50.840;3.396;2023-01-10T13:28:18;8.58;;;2.10;;
28192;SDS011;15473;50.840;3.396;2023-01-10T13:31:22;7.75;;;1.80;;
28192;SDS011;15473;50.840;3.396;2023-01-10T13:34:32;9.50;;;2.02;;
28192;SDS011;15473;50.840;3.396;2023-01-10T13:37:28;4.75;;;1.90;;
28192;SDS011;15473;50.840;3.396;2023-01-10T13:40:23;12.28;;;2.10;;
28192;SDS011;15473;50.840;3.396;2023-01-10T13:49:38;5.67;;;1.98;;
28192;SDS011;15473;50.840;3.396;2023-01-10T13:52:33;2.70;;;1.35;;
28192;SDS011;15473;50.840;3.396;2023-01-10T13:58:40;6.03;;;1.57;;
28192;SDS011;15473;50.840;3.396;2023-01-10T14:01:41;2.62;;;1.70;;
28192;SDS011;15473;50.840;3.396;2023-01-10T14:05:02;2.75;;;1.52;;
28192;SDS011;15473;50.840;3.396;2023-01-10T14:07:57;3.67;;;1.80;;
28192;SDS011;15473;50.840;3.396;2023-01-10T14:11:03;4.45;;;1.75;;
28192;SDS011;15473;50.840;3.396;2023-01-10T14:13:57;2.05;;;1.60;;
28192;SDS011;15473;50.840;3.396;2023-01-10T14:20:16;6.33;;;1.47;;
28192;SDS011;15473;50.840;3.396;2023-01-10T14:26:38;4.40;;;1.17;;
28192;SDS011;15473;50.840;3.396;2023-01-10T14:29:33;5.53;;;2.02;;
28192;SDS011;15473;50.840;3.396;2023-01-10T14:32:29;3.15;;;1.32;;
28192;SDS011;15473;50.840;3.396;2023-01-10T14:35:33;3.17;;;1.87;;
28192;SDS011;15473;50.840;3.396;2023-01-10T14:38:49;5.47;;;1.20;;
28192;SDS011;15473;50.840;3.396;2023-01-10T14:41:46;4.95;;;1.20;;
28192;SDS011;15473;50.840;3.396;2023-01-10T14:44:48;3.95;;;1.50;;
28192;SDS011;15473;50.840;3.396;2023-01-10T14:48:02;1.25;;;1.15;;
28192;SDS011;15473;50.840;3.396;2023-01-10T14:51:22;3.17;;;1.32;;
28192;SDS011;15473;50.840;3.396;2023-01-10T14:54:19;1.92;;;1.70;;
28192;SDS011;15473;50.840;3.396;2023-01-10T14:57:23;5.65;;;1.40;;
28192;SDS011;15473;50.840;3.396;2023-01-10T15:00:15;1.75;;;1.05;;
28192;SDS011;15473;50.840;3.396;2023-01-10T15:06:07;2.02;;;1.40;;
28192;SDS011;15473;50.840;3.396;2023-01-10T15:09:01;3.35;;;1.55;;
28192;SDS011;15473;50.840;3.396;2023-01-10T15:11:54;2.77;;;1.40;;
28192;SDS011;15473;50.840;3.396;2023-01-10T15:18:43;2.30;;;1.47;;
28192;SDS011;15473;50.840;3.396;2023-01-10T15:21:41;2.17;;;1.80;;
28192;SDS011;15473;50.840;3.396;2023-01-10T15:24:42;3.17;;;1.60;;
28192;SDS011;15473;50.840;3.396;2023-01-10T15:27:37;4.53;;;2.47;;
28192;SDS011;15473;50.840;3.396;2023-01-10T15:33:30;5.03;;;1.75;;
28192;SDS011;15473;50.840;3.396;2023-01-10T15:36:25;2.42;;;1.87;;
28192;SDS011;15473;50.840;3.396;2023-01-10T15:39:39;2.85;;;2.22;;
28192;SDS011;15473;50.840;3.396;2023-01-10T15:42:19;6.55;;;2.20;;
28192;SDS011;15473;50.840;3.396;2023-01-10T15:45:21;2.40;;;1.70;;
28192;SDS011;15473;50.840;3.396;2023-01-10T15:48:35;3.70;;;2.60;;
28192;SDS011;15473;50.840;3.396;2023-01-10T15:51:50;4.95;;;2.08;;
28192;SDS011;15473;50.840;3.396;2023-01-10T15:54:50;4.17;;;2.00;;
28192;SDS011;15473;50.840;3.396;2023-01-10T16:01:06;5.90;;;2.67;;
28192;SDS011;15473;50.840;3.396;2023-01-10T16:04:01;2.58;;;2.30;;
28192;SDS011;15473;50.840;3.396;2023-01-10T16:07:04;5.20;;;2.47;;
28192;SDS011;15473;50.840;3.396;2023-01-10T16:13:09;4.83;;;3.00;;
28192;SDS011;15473;50.840;3.396;2023-01-10T16:16:25;3.15;;;2.77;;
28192;SDS011;15473;50.840;3.396;2023-01-10T16:19:18;5.17;;;3.10;;
28192;SDS011;15473;50.840;3.396;2023-01-10T16:22:14;4.33;;;2.92;;
28192;SDS011;15473;50.840;3.396;2023-01-10T16:25:12;4.05;;;3.02;;
28192;SDS011;15473;50.840;3.396;2023-01-10T16:28:13;4.28;;;2.72;;
28192;SDS011;15473;50.840;3.396;2023-01-10T16:31:09;4.83;;;2.85;;
28192;SDS011;15473;50.840;3.396;2023-01-10T16:34:04;5.28;;;2.70;;
28192;SDS011;15473;50.840;3.396;2023-01-10T16:36:58;4.85;;;3.30;;
28192;SDS011;15473;50.840;3.396;2023-01-10T16:39:52;7.55;;;3.98;;
28192;SDS011;15473;50.840;3.396;2023-01-10T16:42:46;5.10;;;2.92;;
28192;SDS011;15473;50.840;3.396;2023-01-10T16:45:58;8.48;;;3.50;;
28192;SDS011;15473;50.840;3.396;2023-01-10T16:48:57;4.40;;;3.15;;
28192;SDS011;15473;50.840;3.396;2023-01-10T16:51:51;4.25;;;3.42;;
28192;SDS011;15473;50.840;3.396;2023-01-10T16:54:34;7.78;;;3.80;;
28192;SDS011;15473;50.840;3.396;2023-01-10T16:57:34;4.50;;;3.37;;
28192;SDS011;15473;50.840;3.396;2023-01-10T17:00:27;4.67;;;3.40;;
28192;SDS011;15473;50.840;3.396;2023-01-10T17:03:20;6.20;;;3.87;;
28192;SDS011;15473;50.840;3.396;2023-01-10T17:06:15;6.28;;;4.33;;
28192;SDS011;15473;50.840;3.396;2023-01-10T17:09:12;4.53;;;3.62;;
28192;SDS011;15473;50.840;3.396;2023-01-10T17:12:12;5.08;;;4.10;;
28192;SDS011;15473;50.840;3.396;2023-01-10T17:15:14;4.85;;;3.70;;
28192;SDS011;15473;50.840;3.396;2023-01-10T17:18:08;5.37;;;3.90;;
28192;SDS011;15473;50.840;3.396;2023-01-10T17:21:01;4.95;;;3.70;;
28192;SDS011;15473;50.840;3.396;2023-01-10T17:23:54;5.67;;;4.05;;
28192;SDS011;15473;50.840;3.396;2023-01-10T17:26:48;5.95;;;4.33;;
28192;SDS011;15473;50.840;3.396;2023-01-10T17:29:41;9.65;;;4.28;;
28192;SDS011;15473;50.840;3.396;2023-01-10T17:32:34;4.83;;;3.95;;
28192;SDS011;15473;50.840;3.396;2023-01-10T17:35:27;7.12;;;4.05;;
28192;SDS011;15473;50.840;3.396;2023-01-10T17:38:22;4.90;;;4.10;;
28192;SDS011;15473;50.840;3.396;2023-01-10T17:41:16;4.83;;;4.00;;
28192;SDS011;15473;50.840;3.396;2023-01-10T17:44:09;4.90;;;4.03;;
28192;SDS011;15473;50.840;3.396;2023-01-10T17:47:03;8.90;;;4.30;;
28192;SDS011;15473;50.840;3.396;2023-01-10T17:50:02;7.22;;;4.05;;
28192;SDS011;15473;50.840;3.396;2023-01-10T17:52:55;5.12;;;4.10;;
28192;SDS011;15473;50.840;3.396;2023-01-10T17:55:49;5.97;;;3.87;;
28192;SDS011;15473;50.840;3.396;2023-01-10T17:58:43;5.53;;;3.92;;
28192;SDS011;15473;50.840;3.396;2023-01-10T18:01:37;5.15;;;3.75;;
28192;SDS011;15473;50.840;3.396;2023-01-10T18:04:32;4.97;;;3.70;;
28192;SDS011;15473;50.840;3.396;2023-01-10T18:07:25;6.40;;;3.90;;
28192;SDS011;15473;50.840;3.396;2023-01-10T18:10:18;8.13;;;4.12;;
28192;SDS011;15473;50.840;3.396;2023-01-10T18:13:11;5.53;;;4.67;;
28192;SDS011;15473;50.840;3.396;2023-01-10T18:16:06;9.58;;;4.58;;
28192;SDS011;15473;50.840;3.396;2023-01-10T18:19:06;7.35;;;4.72;;
28192;SDS011;15473;50.840;3.396;2023-01-10T18:22:00;5.70;;;4.53;;
28192;SDS011;15473;50.840;3.396;2023-01-10T18:24:55;8.23;;;4.87;;
28192;SDS011;15473;50.840;3.396;2023-01-10T18:27:49;8.38;;;4.95;;
28192;SDS011;15473;50.840;3.396;2023-01-10T18:30:43;6.40;;;5.15;;
28192;SDS011;15473;50.840;3.396;2023-01-10T18:33:36;5.45;;;4.70;;
28192;SDS011;15473;50.840;3.396;2023-01-10T18:36:29;8.40;;;5.60;;
28192;SDS011;15473;50.840;3.396;2023-01-10T18:39:23;7.50;;;5.17;;
28192;SDS011;15473;50.840;3.396;2023-01-10T18:42:16;5.53;;;4.42;;
28192;SDS011;15473;50.840;3.396;2023-01-10T18:45:09;6.20;;;4.90;;
28192;SDS011;15473;50.840;3.396;2023-01-10T18:48:02;5.37;;;4.83;;
28192;SDS011;15473;50.840;3.396;2023-01-10T18:51:03;7.10;;;4.92;;
28192;SDS011;15473;50.840;3.396;2023-01-10T18:53:56;6.97;;;5.30;;
28192;SDS011;15473;50.840;3.396;2023-01-10T18:56:50;7.20;;;5.20;;
28192;SDS011;15473;50.840;3.396;2023-01-10T18:59:45;5.62;;;4.50;;
28192;SDS011;15473;50.840;3.396;2023-01-10T19:02:38;6.87;;;5.12;;
28192;SDS011;15473;50.840;3.396;2023-01-10T19:05:31;6.35;;;4.53;;
28192;SDS011;15473;50.840;3.396;2023-01-10T19:08:25;6.25;;;4.58;;
28192;SDS011;15473;50.840;3.396;2023-01-10T19:11:18;6.78;;;5.05;;
28192;SDS011;15473;50.840;3.396;2023-01-10T19:14:11;8.38;;;4.00;;